sensor_id;sensor_type;location;lat;lon;timestamp;temperature;humidity
56761;DHT22;42633;44.494;11.356;2022-10-23T12:24:54;24.50;99.90
56761;DHT22;42633;44.494;11.356;2022-10-23T12:28:42;24.40;99.90
56761;DHT22;42633;44.494;11.356;2022-10-23T12:39:31;24.60;99.90
56761;DHT22;42633;44.494;11.356;2022-10-23T12:42:40;24.50;99.90
56761;DHT22;42633;44.494;11.356;2022-10-23T12:46:04;24.50;99.90
56761;DHT22;42633;44.494;11.356;2022-10-23T12:49:20;24.70;99.90
56761;DHT22;42633;44.494;11.356;2022-10-23T12:52:25;24.70;99.90
56761;DHT22;42633;44.494;11.356;2022-10-23T12:58:58;24.80;99.90
56761;DHT22;42633;44.494;11.356;2022-10-23T13:02:26;24.80;99.90
56761;DHT22;42633;44.494;11.356;2022-10-23T13:05:31;24.70;99.90
56761;DHT22;42633;44.494;11.356;2022-10-23T13:08:40;24.70;99.90
56761;DHT22;42633;44.494;11.356;2022-10-23T13:12:19;24.70;99.90
56761;DHT22;42633;44.494;11.356;2022-10-23T13:18:44;24.60;99.90
56761;DHT22;42633;44.494;11.356;2022-10-23T13:21:50;24.60;99.90
56761;DHT22;42633;44.494;11.356;2022-10-23T13:24:54;24.70;99.90
56761;DHT22;42633;44.494;11.356;2022-10-23T13:31:29;24.80;99.90
56761;DHT22;42633;44.494;11.356;2022-10-23T13:34:35;24.80;99.90
56761;DHT22;42633;44.494;11.356;2022-10-23T13:37:39;24.70;99.90
56761;DHT22;42633;44.494;11.356;2022-10-23T13:40:53;24.70;99.90
56761;DHT22;42633;44.494;11.356;2022-10-23T13:44:04;24.70;99.90
56761;DHT22;42633;44.494;11.356;2022-10-23T13:47:13;24.70;99.90
56761;DHT22;42633;44.494;11.356;2022-10-23T13:50:19;24.70;99.90
56761;DHT22;42633;44.494;11.356;2022-10-23T13:53:24;24.60;99.90
56761;DHT22;42633;44.494;11.356;2022-10-23T13:56:32;24.50;99.90
56761;DHT22;42633;44.494;11.356;2022-10-23T13:59:37;24.50;99.90
56761;DHT22;42633;44.494;11.356;2022-10-23T14:02:42;24.50;99.90
56761;DHT22;42633;44.494;11.356;2022-10-23T14:05:46;24.50;99.90
56761;DHT22;42633;44.494;11.356;2022-10-23T14:08:51;24.50;99.90
56761;DHT22;42633;44.494;11.356;2022-10-23T14:11:56;24.50;99.90
56761;DHT22;42633;44.494;11.356;2022-10-23T14:15:01;24.60;99.90
56761;DHT22;42633;44.494;11.356;2022-10-23T14:18:06;24.70;99.90
56761;DHT22;42633;44.494;11.356;2022-10-23T14:21:14;24.70;99.90
56761;DHT22;42633;44.494;11.356;2022-10-23T14:24:19;24.70;99.90
56761;DHT22;42633;44.494;11.356;2022-10-23T14:27:28;24.70;99.90
56761;DHT22;42633;44.494;11.356;2022-10-23T14:30:35;24.60;99.90
56761;DHT22;42633;44.494;11.356;2022-10-23T14:33:40;24.60;99.90
56761;DHT22;42633;44.494;11.356;2022-10-23T14:36:44;24.50;99.90
56761;DHT22;42633;44.494;11.356;2022-10-23T14:39:49;24.50;99.90
56761;DHT22;42633;44.494;11.356;2022-10-23T14:42:53;24.50;99.90
56761;DHT22;42633;44.494;11.356;2022-10-23T14:46:14;24.50;99.90
56761;DHT22;42633;44.494;11.356;2022-10-23T14:49:18;24.50;99.90
56761;DHT22;42633;44.494;11.356;2022-10-23T14:52:23;24.50;99.90
56761;DHT22;42633;44.494;11.356;2022-10-23T14:55:29;24.40;99.90
56761;DHT22;42633;44.494;11.356;2022-10-23T14:58:33;24.40;99.90
56761;DHT22;42633;44.494;11.356;2022-10-23T15:01:43;24.30;99.90
56761;DHT22;42633;44.494;11.356;2022-10-23T15:04:47;24.30;99.90
56761;DHT22;42633;44.494;11.356;2022-10-23T15:07:54;24.30;99.90
56761;DHT22;42633;44.494;11.356;2022-10-23T15:11:00;24.30;99.90
56761;DHT22;42633;44.494;11.356;2022-10-23T15:14:08;24.20;99.90
56761;DHT22;42633;44.494;11.356;2022-10-23T15:17:14;24.20;99.90
56761;DHT22;42633;44.494;11.356;2022-10-23T15:20:19;24.10;99.90
56761;DHT22;42633;44.494;11.356;2022-10-23T15:23:26;24.00;99.90
56761;DHT22;42633;44.494;11.356;2022-10-23T15:26:31;23.90;99.90
56761;DHT22;42633;44.494;11.356;2022-10-23T15:29:35;23.80;99.90
56761;DHT22;42633;44.494;11.356;2022-10-23T15:32:40;23.70;99.90
56761;DHT22;42633;44.494;11.356;2022-10-23T15:35:44;23.60;99.90
56761;DHT22;42633;44.494;11.356;2022-10-23T15:38:52;23.50;99.90
56761;DHT22;42633;44.494;11.356;2022-10-23T15:41:56;23.50;99.90
56761;DHT22;42633;44.494;11.356;2022-10-23T15:45:00;23.40;99.90
56761;DHT22;42633;44.494;11.356;2022-10-23T15:48:05;23.30;99.90
56761;DHT22;42633;44.494;11.356;2022-10-23T15:51:09;23.30;99.90
56761;DHT22;42633;44.494;11.356;2022-10-23T15:54:15;23.20;99.90
56761;DHT22;42633;44.494;11.356;2022-10-23T15:57:22;23.10;99.90
56761;DHT22;42633;44.494;11.356;2022-10-23T16:00:26;23.00;99.90
56761;DHT22;42633;44.494;11.356;2022-10-23T16:03:35;22.90;99.90
56761;DHT22;42633;44.494;11.356;2022-10-23T16:06:40;22.90;99.90
56761;DHT22;42633;44.494;11.356;2022-10-23T16:09:45;22.80;99.90
56761;DHT22;42633;44.494;11.356;2022-10-23T16:12:51;22.70;99.90
56761;DHT22;42633;44.494;11.356;2022-10-23T16:15:55;22.60;99.90
56761;DHT22;42633;44.494;11.356;2022-10-23T16:19:02;22.50;99.90
56761;DHT22;42633;44.494;11.356;2022-10-23T16:22:10;22.40;99.90
56761;DHT22;42633;44.494;11.356;2022-10-23T16:25:14;22.40;99.90
56761;DHT22;42633;44.494;11.356;2022-10-23T16:28:22;22.30;99.90
56761;DHT22;42633;44.494;11.356;2022-10-23T16:31:27;22.20;99.90
56761;DHT22;42633;44.494;11.356;2022-10-23T16:34:35;22.10;99.90
56761;DHT22;42633;44.494;11.356;2022-10-23T16:37:44;22.10;99.90
56761;DHT22;42633;44.494;11.356;2022-10-23T16:44:39;22.00;99.90
56761;DHT22;42633;44.494;11.356;2022-10-23T16:47:43;22.00;99.90
56761;DHT22;42633;44.494;11.356;2022-10-23T16:50:48;21.90;99.90
56761;DHT22;42633;44.494;11.356;2022-10-23T16:53:54;21.80;99.90
56761;DHT22;42633;44.494;11.356;2022-10-23T16:56:59;21.80;99.90
56761;DHT22;42633;44.494;11.356;2022-10-23T17:00:04;21.70;99.90
56761;DHT22;42633;44.494;11.356;2022-10-23T17:03:09;21.70;99.90
56761;DHT22;42633;44.494;11.356;2022-10-23T17:06:18;21.60;99.90
56761;DHT22;42633;44.494;11.356;2022-10-23T17:09:24;21.60;99.90
56761;DHT22;42633;44.494;11.356;2022-10-23T17:12:30;21.60;99.90
56761;DHT22;42633;44.494;11.356;2022-10-23T17:15:39;21.50;99.90
56761;DHT22;42633;44.494;11.356;2022-10-23T17:28:21;21.40;99.90
56761;DHT22;42633;44.494;11.356;2022-10-23T17:31:31;21.30;99.90
56761;DHT22;42633;44.494;11.356;2022-10-23T17:34:36;21.30;99.90
56761;DHT22;42633;44.494;11.356;2022-10-23T17:37:41;21.20;99.90
56761;DHT22;42633;44.494;11.356;2022-10-23T17:40:53;21.20;99.90
56761;DHT22;42633;44.494;11.356;2022-10-23T17:43:58;21.20;99.90
56761;DHT22;42633;44.494;11.356;2022-10-23T17:47:05;21.10;99.90
56761;DHT22;42633;44.494;11.356;2022-10-23T17:50:11;21.10;99.90
56761;DHT22;42633;44.494;11.356;2022-10-23T17:53:16;21.00;99.90
56761;DHT22;42633;44.494;11.356;2022-10-23T17:56:25;20.90;99.90
56761;DHT22;42633;44.494;11.356;2022-10-23T17:59:30;20.90;99.90
56761;DHT22;42633;44.494;11.356;2022-10-23T18:02:34;20.90;99.90
56761;DHT22;42633;44.494;11.356;2022-10-23T18:05:37;20.80;99.90
56761;DHT22;42633;44.494;11.356;2022-10-23T18:08:44;20.80;99.90
56761;DHT22;42633;44.494;11.356;2022-10-23T18:11:49;20.80;99.90
56761;DHT22;42633;44.494;11.356;2022-10-23T18:14:54;20.70;99.90
56761;DHT22;42633;44.494;11.356;2022-10-23T18:18:00;20.70;99.90
56761;DHT22;42633;44.494;11.356;2022-10-23T18:21:06;20.70;99.90
56761;DHT22;42633;44.494;11.356;2022-10-23T18:24:10;20.70;99.90
56761;DHT22;42633;44.494;11.356;2022-10-23T18:27:15;20.70;99.90
56761;DHT22;42633;44.494;11.356;2022-10-23T18:30:20;20.60;99.90
56761;DHT22;42633;44.494;11.356;2022-10-23T18:33:25;20.60;99.90
56761;DHT22;42633;44.494;11.356;2022-10-23T18:36:32;20.60;99.90
56761;DHT22;42633;44.494;11.356;2022-10-23T18:39:38;20.60;99.90
56761;DHT22;42633;44.494;11.356;2022-10-23T18:42:45;20.60;99.90
56761;DHT22;42633;44.494;11.356;2022-10-23T18:45:57;20.60;99.90
56761;DHT22;42633;44.494;11.356;2022-10-23T18:49:02;20.60;99.90
56761;DHT22;42633;44.494;11.356;2022-10-23T18:56:29;20.60;99.90
56761;DHT22;42633;44.494;11.356;2022-10-23T18:59:47;20.50;99.90
56761;DHT22;42633;44.494;11.356;2022-10-23T19:02:57;20.50;99.90
56761;DHT22;42633;44.494;11.356;2022-10-23T19:06:04;20.40;99.90
56761;DHT22;42633;44.494;11.356;2022-10-23T19:09:10;20.40;99.90
56761;DHT22;42633;44.494;11.356;2022-10-23T19:12:14;20.40;99.90
56761;DHT22;42633;44.494;11.356;2022-10-23T19:15:21;20.30;99.90
56761;DHT22;42633;44.494;11.356;2022-10-23T19:18:25;20.30;99.90
56761;DHT22;42633;44.494;11.356;2022-10-23T19:21:33;20.30;99.90
56761;DHT22;42633;44.494;11.356;2022-10-23T19:24:46;20.30;99.90
56761;DHT22;42633;44.494;11.356;2022-10-23T19:28:20;20.30;99.90
56761;DHT22;42633;44.494;11.356;2022-10-23T19:34:44;20.20;99.90
56761;DHT22;42633;44.494;11.356;2022-10-23T19:37:52;20.20;99.90
56761;DHT22;42633;44.494;11.356;2022-10-23T19:45:51;20.20;99.90
56761;DHT22;42633;44.494;11.356;2022-10-23T19:49:08;20.10;99.90
56761;DHT22;42633;44.494;11.356;2022-10-23T19:52:24;20.20;99.90
56761;DHT22;42633;44.494;11.356;2022-10-23T20:00:41;20.20;99.90
56761;DHT22;42633;44.494;11.356;2022-10-23T20:03:50;20.10;99.90
56761;DHT22;42633;44.494;11.356;2022-10-23T20:07:04;20.10;99.90
56761;DHT22;42633;44.494;11.356;2022-10-23T20:10:12;20.10;99.90
56761;DHT22;42633;44.494;11.356;2022-10-23T20:13:17;20.10;99.90
56761;DHT22;42633;44.494;11.356;2022-10-23T20:19:41;20.00;99.90
56761;DHT22;42633;44.494;11.356;2022-10-23T20:27:28;20.00;99.90
56761;DHT22;42633;44.494;11.356;2022-10-23T20:30:42;20.00;99.90
56761;DHT22;42633;44.494;11.356;2022-10-23T20:33:55;20.00;99.90
56761;DHT22;42633;44.494;11.356;2022-10-23T20:37:03;20.00;99.90
56761;DHT22;42633;44.494;11.356;2022-10-23T20:40:08;20.00;99.90
56761;DHT22;42633;44.494;11.356;2022-10-23T20:43:13;19.90;99.90
56761;DHT22;42633;44.494;11.356;2022-10-23T20:46:32;19.90;99.90
56761;DHT22;42633;44.494;11.356;2022-10-23T20:54:08;19.80;99.90
56761;DHT22;42633;44.494;11.356;2022-10-23T20:57:21;19.80;99.90
56761;DHT22;42633;44.494;11.356;2022-10-23T21:00:32;19.80;99.90
56761;DHT22;42633;44.494;11.356;2022-10-23T21:04:02;19.80;99.90
56761;DHT22;42633;44.494;11.356;2022-10-23T21:07:34;19.80;99.90
56761;DHT22;42633;44.494;11.356;2022-10-23T21:15:15;19.80;99.90
56761;DHT22;42633;44.494;11.356;2022-10-23T21:18:26;19.80;99.90
56761;DHT22;42633;44.494;11.356;2022-10-23T21:27:55;19.70;99.90
56761;DHT22;42633;44.494;11.356;2022-10-23T21:37:33;19.70;99.90
56761;DHT22;42633;44.494;11.356;2022-10-23T21:40:39;19.70;99.90
56761;DHT22;42633;44.494;11.356;2022-10-23T21:43:47;19.70;99.90
56761;DHT22;42633;44.494;11.356;2022-10-23T21:50:13;19.60;99.90
56761;DHT22;42633;44.494;11.356;2022-10-23T21:53:20;19.60;99.90
56761;DHT22;42633;44.494;11.356;2022-10-23T21:59:35;19.70;99.90
56761;DHT22;42633;44.494;11.356;2022-10-23T22:03:05;19.70;99.90
56761;DHT22;42633;44.494;11.356;2022-10-23T22:06:36;19.60;99.90
56761;DHT22;42633;44.494;11.356;2022-10-23T22:13:02;19.60;99.90
56761;DHT22;42633;44.494;11.356;2022-10-23T22:23:04;19.50;99.90
56761;DHT22;42633;44.494;11.356;2022-10-23T22:26:24;19.50;99.90
56761;DHT22;42633;44.494;11.356;2022-10-23T22:29:29;19.50;99.90
56761;DHT22;42633;44.494;11.356;2022-10-23T22:32:34;19.50;99.90
56761;DHT22;42633;44.494;11.356;2022-10-23T22:35:40;19.50;99.90
56761;DHT22;42633;44.494;11.356;2022-10-23T22:38:46;19.50;99.90
56761;DHT22;42633;44.494;11.356;2022-10-23T22:41:50;19.50;99.90
56761;DHT22;42633;44.494;11.356;2022-10-23T22:44:55;19.50;99.90
56761;DHT22;42633;44.494;11.356;2022-10-23T22:48:00;19.50;99.90
56761;DHT22;42633;44.494;11.356;2022-10-23T22:51:05;19.60;99.90
56761;DHT22;42633;44.494;11.356;2022-10-23T22:54:09;19.60;99.90
56761;DHT22;42633;44.494;11.356;2022-10-23T22:57:15;19.70;99.90
56761;DHT22;42633;44.494;11.356;2022-10-23T23:00:19;19.70;99.90
56761;DHT22;42633;44.494;11.356;2022-10-23T23:03:24;19.70;99.90
56761;DHT22;42633;44.494;11.356;2022-10-23T23:06:28;19.80;99.90
56761;DHT22;42633;44.494;11.356;2022-10-23T23:09:35;19.80;99.90
56761;DHT22;42633;44.494;11.356;2022-10-23T23:12:41;19.80;99.90
56761;DHT22;42633;44.494;11.356;2022-10-23T23:15:45;19.70;99.90
56761;DHT22;42633;44.494;11.356;2022-10-23T23:18:50;19.60;99.90
56761;DHT22;42633;44.494;11.356;2022-10-23T23:21:56;19.50;99.90
56761;DHT22;42633;44.494;11.356;2022-10-23T23:25:02;19.50;99.90
56761;DHT22;42633;44.494;11.356;2022-10-23T23:28:13;19.50;99.90
56761;DHT22;42633;44.494;11.356;2022-10-23T23:31:21;19.50;99.90
56761;DHT22;42633;44.494;11.356;2022-10-23T23:34:27;19.50;99.90
56761;DHT22;42633;44.494;11.356;2022-10-23T23:37:32;19.40;99.90
56761;DHT22;42633;44.494;11.356;2022-10-23T23:40:37;19.40;99.90
56761;DHT22;42633;44.494;11.356;2022-10-23T23:43:43;19.40;99.90
56761;DHT22;42633;44.494;11.356;2022-10-23T23:46:51;19.30;99.90
56761;DHT22;42633;44.494;11.356;2022-10-23T23:49:57;19.20;99.90
56761;DHT22;42633;44.494;11.356;2022-10-23T23:53:03;19.30;99.90
56761;DHT22;42633;44.494;11.356;2022-10-23T23:56:12;19.30;99.90
56761;DHT22;42633;44.494;11.356;2022-10-23T23:59:18;19.20;99.90
